sensor_id;sensor_type;location;lat;lon;timestamp;P1;durP1;ratioP1;P2;durP2;ratioP2
23060;SDS011;11698;47.690;9.132;2023-02-28T00:00:15;4.78;;;3.20;;
23060;SDS011;11698;47.690;9.132;2023-02-28T00:02:42;3.83;;;3.30;;
23060;SDS011;11698;47.690;9.132;2023-02-28T00:05:09;4.00;;;3.03;;
23060;SDS011;11698;47.690;9.132;2023-02-28T00:07:36;3.10;;;2.80;;
23060;SDS011;11698;47.690;9.132;2023-02-28T00:10:02;3.70;;;3.30;;
23060;SDS011;11698;47.690;9.132;2023-02-28T00:12:29;4.60;;;2.90;;
23060;SDS011;11698;47.690;9.132;2023-02-28T00:14:55;4.82;;;3.10;;
23060;SDS011;11698;47.690;9.132;2023-02-28T00:17:21;4.75;;;2.95;;
23060;SDS011;11698;47.690;9.132;2023-02-28T00:19:47;4.82;;;2.90;;
23060;SDS011;11698;47.690;9.132;2023-02-28T00:22:14;4.68;;;3.20;;
23060;SDS011;11698;47.690;9.132;2023-02-28T00:24:40;4.45;;;3.60;;
23060;SDS011;11698;47.690;9.132;2023-02-28T00:27:06;3.40;;;2.78;;
23060;SDS011;11698;47.690;9.132;2023-02-28T00:29:32;6.28;;;3.50;;
23060;SDS011;11698;47.690;9.132;2023-02-28T00:31:58;4.93;;;3.00;;
23060;SDS011;11698;47.690;9.132;2023-02-28T00:34:24;4.35;;;3.50;;
23060;SDS011;11698;47.690;9.132;2023-02-28T00:36:50;3.80;;;3.28;;
23060;SDS011;11698;47.690;9.132;2023-02-28T00:39:16;5.27;;;3.23;;
23060;SDS011;11698;47.690;9.132;2023-02-28T00:41:42;5.32;;;2.95;;
23060;SDS011;11698;47.690;9.132;2023-02-28T00:44:08;4.00;;;3.30;;
23060;SDS011;11698;47.690;9.132;2023-02-28T00:46:34;4.40;;;3.00;;
23060;SDS011;11698;47.690;9.132;2023-02-28T00:49:00;7.07;;;3.50;;
23060;SDS011;11698;47.690;9.132;2023-02-28T00:51:26;3.28;;;2.53;;
23060;SDS011;11698;47.690;9.132;2023-02-28T00:53:52;4.70;;;3.22;;
23060;SDS011;11698;47.690;9.132;2023-02-28T00:56:18;4.05;;;3.00;;
23060;SDS011;11698;47.690;9.132;2023-02-28T00:58:44;4.18;;;3.22;;
23060;SDS011;11698;47.690;9.132;2023-02-28T01:01:11;4.28;;;3.20;;
23060;SDS011;11698;47.690;9.132;2023-02-28T01:03:37;3.35;;;2.88;;
23060;SDS011;11698;47.690;9.132;2023-02-28T01:06:03;4.45;;;3.10;;
23060;SDS011;11698;47.690;9.132;2023-02-28T01:08:29;4.17;;;3.00;;
23060;SDS011;11698;47.690;9.132;2023-02-28T01:10:55;4.00;;;3.30;;
23060;SDS011;11698;47.690;9.132;2023-02-28T01:13:22;5.50;;;3.42;;
23060;SDS011;11698;47.690;9.132;2023-02-28T01:15:49;4.45;;;3.00;;
23060;SDS011;11698;47.690;9.132;2023-02-28T01:18:16;3.95;;;3.13;;
23060;SDS011;11698;47.690;9.132;2023-02-28T01:20:42;6.45;;;3.50;;
23060;SDS011;11698;47.690;9.132;2023-02-28T01:23:08;4.28;;;3.22;;
23060;SDS011;11698;47.690;9.132;2023-02-28T01:25:35;6.77;;;3.20;;
23060;SDS011;11698;47.690;9.132;2023-02-28T01:28:01;4.93;;;3.58;;
23060;SDS011;11698;47.690;9.132;2023-02-28T01:30:27;4.82;;;3.25;;
23060;SDS011;11698;47.690;9.132;2023-02-28T01:32:53;3.42;;;2.90;;
23060;SDS011;11698;47.690;9.132;2023-02-28T01:35:19;4.32;;;3.28;;
23060;SDS011;11698;47.690;9.132;2023-02-28T01:37:45;4.80;;;3.35;;
23060;SDS011;11698;47.690;9.132;2023-02-28T01:40:11;3.47;;;3.00;;
23060;SDS011;11698;47.690;9.132;2023-02-28T01:42:38;4.10;;;3.10;;
23060;SDS011;11698;47.690;9.132;2023-02-28T01:47:42;5.88;;;2.92;;
23060;SDS011;11698;47.690;9.132;2023-02-28T01:50:13;5.45;;;3.15;;
23060;SDS011;11698;47.690;9.132;2023-02-28T01:52:40;4.13;;;3.40;;
23060;SDS011;11698;47.690;9.132;2023-02-28T01:55:07;3.58;;;3.10;;
23060;SDS011;11698;47.690;9.132;2023-02-28T01:57:35;3.95;;;2.60;;
23060;SDS011;11698;47.690;9.132;2023-02-28T02:00:21;4.63;;;3.30;;
23060;SDS011;11698;47.690;9.132;2023-02-28T02:02:49;3.85;;;2.92;;
23060;SDS011;11698;47.690;9.132;2023-02-28T02:05:17;4.07;;;3.13;;
23060;SDS011;11698;47.690;9.132;2023-02-28T02:07:44;3.72;;;2.72;;
23060;SDS011;11698;47.690;9.132;2023-02-28T02:12:55;3.95;;;3.13;;
23060;SDS011;11698;47.690;9.132;2023-02-28T02:17:58;3.70;;;2.60;;
23060;SDS011;11698;47.690;9.132;2023-02-28T02:20:32;3.72;;;2.75;;
23060;SDS011;11698;47.690;9.132;2023-02-28T02:25:39;3.30;;;2.63;;
23060;SDS011;11698;47.690;9.132;2023-02-28T02:43:40;4.30;;;2.70;;
23060;SDS011;11698;47.690;9.132;2023-02-28T02:46:10;4.55;;;3.05;;
23060;SDS011;11698;47.690;9.132;2023-02-28T02:48:38;4.05;;;2.75;;
23060;SDS011;11698;47.690;9.132;2023-02-28T02:51:15;3.42;;;2.80;;
23060;SDS011;11698;47.690;9.132;2023-02-28T02:53:45;3.22;;;2.92;;
23060;SDS011;11698;47.690;9.132;2023-02-28T02:56:14;4.03;;;2.60;;
23060;SDS011;11698;47.690;9.132;2023-02-28T02:58:41;2.97;;;2.65;;
23060;SDS011;11698;47.690;9.132;2023-02-28T03:01:08;5.03;;;2.60;;
23060;SDS011;11698;47.690;9.132;2023-02-28T03:03:36;4.88;;;2.75;;
23060;SDS011;11698;47.690;9.132;2023-02-28T03:06:02;3.50;;;2.80;;
23060;SDS011;11698;47.690;9.132;2023-02-28T03:08:29;3.35;;;2.63;;
23060;SDS011;11698;47.690;9.132;2023-02-28T03:10:59;3.72;;;2.53;;
23060;SDS011;11698;47.690;9.132;2023-02-28T03:16:19;4.30;;;2.80;;
23060;SDS011;11698;47.690;9.132;2023-02-28T03:18:54;3.92;;;2.60;;
23060;SDS011;11698;47.690;9.132;2023-02-28T03:23:53;3.70;;;2.47;;
23060;SDS011;11698;47.690;9.132;2023-02-28T03:26:24;2.85;;;2.50;;
23060;SDS011;11698;47.690;9.132;2023-02-28T03:28:56;2.72;;;2.42;;
23060;SDS011;11698;47.690;9.132;2023-02-28T03:34:03;3.78;;;2.72;;
23060;SDS011;11698;47.690;9.132;2023-02-28T03:36:30;4.05;;;2.72;;
23060;SDS011;11698;47.690;9.132;2023-02-28T03:38:58;3.67;;;2.38;;
23060;SDS011;11698;47.690;9.132;2023-02-28T03:41:32;3.22;;;2.70;;
23060;SDS011;11698;47.690;9.132;2023-02-28T03:44:22;3.80;;;2.83;;
23060;SDS011;11698;47.690;9.132;2023-02-28T03:46:54;3.95;;;2.60;;
23060;SDS011;11698;47.690;9.132;2023-02-28T03:49:30;2.92;;;2.50;;
23060;SDS011;11698;47.690;9.132;2023-02-28T03:51:57;4.93;;;2.90;;
23060;SDS011;11698;47.690;9.132;2023-02-28T03:54:27;4.40;;;2.83;;
23060;SDS011;11698;47.690;9.132;2023-02-28T03:56:57;4.47;;;2.88;;
23060;SDS011;11698;47.690;9.132;2023-02-28T03:59:30;3.25;;;2.67;;
23060;SDS011;11698;47.690;9.132;2023-02-28T04:01:59;4.70;;;2.88;;
23060;SDS011;11698;47.690;9.132;2023-02-28T04:04:25;2.78;;;2.33;;
23060;SDS011;11698;47.690;9.132;2023-02-28T04:06:51;5.30;;;3.22;;
23060;SDS011;11698;47.690;9.132;2023-02-28T04:09:18;4.22;;;3.25;;
23060;SDS011;11698;47.690;9.132;2023-02-28T04:14:10;3.60;;;2.78;;
23060;SDS011;11698;47.690;9.132;2023-02-28T04:16:38;3.20;;;2.60;;
23060;SDS011;11698;47.690;9.132;2023-02-28T04:19:05;3.60;;;2.40;;
23060;SDS011;11698;47.690;9.132;2023-02-28T04:21:32;3.63;;;2.70;;
23060;SDS011;11698;47.690;9.132;2023-02-28T04:23:58;4.00;;;2.83;;
23060;SDS011;11698;47.690;9.132;2023-02-28T04:26:29;2.83;;;2.53;;
23060;SDS011;11698;47.690;9.132;2023-02-28T04:28:55;3.13;;;2.70;;
23060;SDS011;11698;47.690;9.132;2023-02-28T04:31:21;3.38;;;2.80;;
23060;SDS011;11698;47.690;9.132;2023-02-28T04:33:47;4.05;;;2.75;;
23060;SDS011;11698;47.690;9.132;2023-02-28T04:36:13;4.70;;;3.25;;
23060;SDS011;11698;47.690;9.132;2023-02-28T04:38:42;4.45;;;3.10;;
23060;SDS011;11698;47.690;9.132;2023-02-28T04:41:08;4.00;;;2.83;;
23060;SDS011;11698;47.690;9.132;2023-02-28T04:43:34;4.07;;;3.20;;
23060;SDS011;11698;47.690;9.132;2023-02-28T04:46:02;4.78;;;3.20;;
23060;SDS011;11698;47.690;9.132;2023-02-28T04:48:29;6.38;;;3.17;;
23060;SDS011;11698;47.690;9.132;2023-02-28T04:50:59;5.15;;;3.13;;
23060;SDS011;11698;47.690;9.132;2023-02-28T04:53:25;5.38;;;3.40;;
23060;SDS011;11698;47.690;9.132;2023-02-28T04:55:51;3.78;;;2.88;;
23060;SDS011;11698;47.690;9.132;2023-02-28T04:58:17;4.03;;;3.33;;
23060;SDS011;11698;47.690;9.132;2023-02-28T05:00:43;3.63;;;3.22;;
23060;SDS011;11698;47.690;9.132;2023-02-28T05:03:09;5.00;;;3.50;;
23060;SDS011;11698;47.690;9.132;2023-02-28T05:05:35;4.00;;;3.40;;
23060;SDS011;11698;47.690;9.132;2023-02-28T05:08:01;4.78;;;3.60;;
23060;SDS011;11698;47.690;9.132;2023-02-28T05:10:27;4.05;;;3.05;;
23060;SDS011;11698;47.690;9.132;2023-02-28T05:12:53;3.63;;;3.22;;
23060;SDS011;11698;47.690;9.132;2023-02-28T05:15:19;5.60;;;3.80;;
23060;SDS011;11698;47.690;9.132;2023-02-28T05:17:45;4.53;;;3.05;;
23060;SDS011;11698;47.690;9.132;2023-02-28T05:20:11;4.05;;;3.13;;
23060;SDS011;11698;47.690;9.132;2023-02-28T05:22:38;4.20;;;3.50;;
23060;SDS011;11698;47.690;9.132;2023-02-28T05:25:04;4.43;;;3.22;;
23060;SDS011;11698;47.690;9.132;2023-02-28T05:27:31;5.18;;;3.58;;
23060;SDS011;11698;47.690;9.132;2023-02-28T05:29:57;4.57;;;3.42;;
23060;SDS011;11698;47.690;9.132;2023-02-28T05:32:24;4.35;;;3.70;;
23060;SDS011;11698;47.690;9.132;2023-02-28T05:34:50;5.13;;;3.45;;
23060;SDS011;11698;47.690;9.132;2023-02-28T05:37:16;4.13;;;3.60;;
23060;SDS011;11698;47.690;9.132;2023-02-28T05:39:42;4.72;;;3.60;;
23060;SDS011;11698;47.690;9.132;2023-02-28T05:42:08;5.93;;;3.65;;
23060;SDS011;11698;47.690;9.132;2023-02-28T05:44:34;5.88;;;3.88;;
23060;SDS011;11698;47.690;9.132;2023-02-28T05:47:00;5.10;;;3.78;;
23060;SDS011;11698;47.690;9.132;2023-02-28T05:49:26;5.10;;;4.22;;
23060;SDS011;11698;47.690;9.132;2023-02-28T05:51:52;4.53;;;3.55;;
23060;SDS011;11698;47.690;9.132;2023-02-28T05:54:18;5.53;;;4.13;;
23060;SDS011;11698;47.690;9.132;2023-02-28T05:56:44;4.65;;;3.72;;
23060;SDS011;11698;47.690;9.132;2023-02-28T05:59:11;5.90;;;3.40;;
23060;SDS011;11698;47.690;9.132;2023-02-28T06:01:41;5.03;;;3.80;;
23060;SDS011;11698;47.690;9.132;2023-02-28T06:04:13;5.93;;;4.10;;
23060;SDS011;11698;47.690;9.132;2023-02-28T06:06:49;5.03;;;3.87;;
23060;SDS011;11698;47.690;9.132;2023-02-28T06:09:15;5.45;;;3.60;;
23060;SDS011;11698;47.690;9.132;2023-02-28T06:11:41;5.75;;;3.60;;
23060;SDS011;11698;47.690;9.132;2023-02-28T06:14:10;5.63;;;3.85;;
23060;SDS011;11698;47.690;9.132;2023-02-28T06:16:39;6.38;;;3.97;;
23060;SDS011;11698;47.690;9.132;2023-02-28T06:19:05;5.00;;;3.53;;
23060;SDS011;11698;47.690;9.132;2023-02-28T06:21:31;4.80;;;3.78;;
23060;SDS011;11698;47.690;9.132;2023-02-28T06:23:57;9.48;;;4.60;;
23060;SDS011;11698;47.690;9.132;2023-02-28T06:26:24;5.25;;;3.92;;
23060;SDS011;11698;47.690;9.132;2023-02-28T06:28:50;6.68;;;4.05;;
23060;SDS011;11698;47.690;9.132;2023-02-28T06:31:16;5.60;;;3.95;;
23060;SDS011;11698;47.690;9.132;2023-02-28T06:33:43;6.63;;;4.28;;
23060;SDS011;11698;47.690;9.132;2023-02-28T06:36:10;5.60;;;4.10;;
23060;SDS011;11698;47.690;9.132;2023-02-28T06:38:37;5.95;;;3.95;;
23060;SDS011;11698;47.690;9.132;2023-02-28T06:41:03;6.28;;;4.28;;
23060;SDS011;11698;47.690;9.132;2023-02-28T06:43:31;5.57;;;3.78;;
23060;SDS011;11698;47.690;9.132;2023-02-28T06:45:57;5.13;;;4.22;;
23060;SDS011;11698;47.690;9.132;2023-02-28T06:48:24;5.50;;;3.95;;
23060;SDS011;11698;47.690;9.132;2023-02-28T06:50:50;5.43;;;4.00;;
23060;SDS011;11698;47.690;9.132;2023-02-28T06:53:16;5.45;;;3.67;;
23060;SDS011;11698;47.690;9.132;2023-02-28T06:55:42;6.40;;;4.03;;
23060;SDS011;11698;47.690;9.132;2023-02-28T06:58:08;5.57;;;3.83;;
23060;SDS011;11698;47.690;9.132;2023-02-28T07:00:43;7.82;;;4.40;;
23060;SDS011;11698;47.690;9.132;2023-02-28T07:03:10;5.10;;;4.07;;
23060;SDS011;11698;47.690;9.132;2023-02-28T07:05:36;8.05;;;4.10;;
23060;SDS011;11698;47.690;9.132;2023-02-28T07:08:03;6.90;;;4.38;;
23060;SDS011;11698;47.690;9.132;2023-02-28T07:10:29;6.95;;;4.22;;
23060;SDS011;11698;47.690;9.132;2023-02-28T07:12:55;6.78;;;4.35;;
23060;SDS011;11698;47.690;9.132;2023-02-28T07:15:21;4.90;;;4.22;;
23060;SDS011;11698;47.690;9.132;2023-02-28T07:17:47;6.95;;;4.15;;
23060;SDS011;11698;47.690;9.132;2023-02-28T07:20:13;6.90;;;4.38;;
23060;SDS011;11698;47.690;9.132;2023-02-28T07:22:39;4.70;;;3.90;;
23060;SDS011;11698;47.690;9.132;2023-02-28T07:25:06;5.13;;;4.38;;
23060;SDS011;11698;47.690;9.132;2023-02-28T07:27:32;6.13;;;4.10;;
23060;SDS011;11698;47.690;9.132;2023-02-28T07:29:59;5.28;;;4.20;;
23060;SDS011;11698;47.690;9.132;2023-02-28T07:32:28;5.00;;;3.90;;
23060;SDS011;11698;47.690;9.132;2023-02-28T07:34:54;6.13;;;4.28;;
23060;SDS011;11698;47.690;9.132;2023-02-28T07:37:20;6.32;;;4.20;;
23060;SDS011;11698;47.690;9.132;2023-02-28T07:39:46;7.03;;;4.82;;
23060;SDS011;11698;47.690;9.132;2023-02-28T07:42:12;5.95;;;4.40;;
23060;SDS011;11698;47.690;9.132;2023-02-28T07:44:39;7.40;;;4.57;;
23060;SDS011;11698;47.690;9.132;2023-02-28T07:47:11;7.72;;;4.57;;
23060;SDS011;11698;47.690;9.132;2023-02-28T07:49:37;6.78;;;4.20;;
23060;SDS011;11698;47.690;9.132;2023-02-28T07:52:04;6.00;;;4.55;;
23060;SDS011;11698;47.690;9.132;2023-02-28T07:54:30;6.90;;;4.70;;
23060;SDS011;11698;47.690;9.132;2023-02-28T07:56:56;6.45;;;4.60;;
23060;SDS011;11698;47.690;9.132;2023-02-28T07:59:22;7.53;;;4.53;;
23060;SDS011;11698;47.690;9.132;2023-02-28T08:01:48;6.17;;;4.70;;
23060;SDS011;11698;47.690;9.132;2023-02-28T08:04:15;6.07;;;4.30;;
23060;SDS011;11698;47.690;9.132;2023-02-28T08:06:41;6.53;;;4.60;;
23060;SDS011;11698;47.690;9.132;2023-02-28T08:09:07;6.03;;;4.30;;
23060;SDS011;11698;47.690;9.132;2023-02-28T08:11:33;6.70;;;4.40;;
23060;SDS011;11698;47.690;9.132;2023-02-28T08:13:59;6.50;;;4.50;;
23060;SDS011;11698;47.690;9.132;2023-02-28T08:16:25;6.65;;;4.30;;
23060;SDS011;11698;47.690;9.132;2023-02-28T08:18:52;6.55;;;4.30;;
23060;SDS011;11698;47.690;9.132;2023-02-28T08:21:18;7.40;;;4.30;;
23060;SDS011;11698;47.690;9.132;2023-02-28T08:23:48;6.88;;;4.22;;
23060;SDS011;11698;47.690;9.132;2023-02-28T08:26:15;5.25;;;3.90;;
23060;SDS011;11698;47.690;9.132;2023-02-28T08:28:41;6.78;;;4.00;;
23060;SDS011;11698;47.690;9.132;2023-02-28T08:31:11;5.78;;;4.57;;
23060;SDS011;11698;47.690;9.132;2023-02-28T08:33:38;6.07;;;4.40;;
23060;SDS011;11698;47.690;9.132;2023-02-28T08:36:04;5.25;;;4.00;;
23060;SDS011;11698;47.690;9.132;2023-02-28T08:38:30;6.05;;;4.57;;
23060;SDS011;11698;47.690;9.132;2023-02-28T08:40:57;4.90;;;4.10;;
23060;SDS011;11698;47.690;9.132;2023-02-28T08:43:23;6.93;;;4.47;;
23060;SDS011;11698;47.690;9.132;2023-02-28T08:45:53;7.63;;;4.82;;
23060;SDS011;11698;47.690;9.132;2023-02-28T08:48:21;6.68;;;4.32;;
23060;SDS011;11698;47.690;9.132;2023-02-28T08:51:21;4.72;;;4.22;;
23060;SDS011;11698;47.690;9.132;2023-02-28T08:53:43;6.82;;;4.78;;
23060;SDS011;11698;47.690;9.132;2023-02-28T08:56:11;6.68;;;4.43;;
23060;SDS011;11698;47.690;9.132;2023-02-28T08:58:37;7.07;;;4.72;;
23060;SDS011;11698;47.690;9.132;2023-02-28T09:03:35;6.13;;;4.40;;
23060;SDS011;11698;47.690;9.132;2023-02-28T09:06:01;7.05;;;4.57;;
23060;SDS011;11698;47.690;9.132;2023-02-28T09:08:29;6.38;;;4.75;;
23060;SDS011;11698;47.690;9.132;2023-02-28T09:10:55;6.07;;;4.57;;
23060;SDS011;11698;47.690;9.132;2023-02-28T09:13:22;6.13;;;4.68;;
23060;SDS011;11698;47.690;9.132;2023-02-28T09:15:48;6.63;;;4.70;;
23060;SDS011;11698;47.690;9.132;2023-02-28T09:18:14;5.50;;;4.25;;
23060;SDS011;11698;47.690;9.132;2023-02-28T09:20:41;5.03;;;3.97;;
23060;SDS011;11698;47.690;9.132;2023-02-28T09:23:07;7.95;;;4.63;;
23060;SDS011;11698;47.690;9.132;2023-02-28T09:25:34;5.47;;;4.30;;
23060;SDS011;11698;47.690;9.132;2023-02-28T09:28:00;6.78;;;4.63;;
23060;SDS011;11698;47.690;9.132;2023-02-28T09:30:26;7.47;;;4.80;;
23060;SDS011;11698;47.690;9.132;2023-02-28T09:32:52;7.28;;;4.97;;
23060;SDS011;11698;47.690;9.132;2023-02-28T09:35:19;6.25;;;4.68;;
23060;SDS011;11698;47.690;9.132;2023-02-28T09:37:46;5.80;;;4.30;;
23060;SDS011;11698;47.690;9.132;2023-02-28T09:40:12;6.15;;;4.28;;
23060;SDS011;11698;47.690;9.132;2023-02-28T09:42:39;7.05;;;4.70;;
23060;SDS011;11698;47.690;9.132;2023-02-28T09:45:21;6.57;;;4.68;;
23060;SDS011;11698;47.690;9.132;2023-02-28T09:47:47;6.68;;;4.10;;
23060;SDS011;11698;47.690;9.132;2023-02-28T09:52:40;6.38;;;4.60;;
23060;SDS011;11698;47.690;9.132;2023-02-28T09:55:25;6.68;;;4.60;;
23060;SDS011;11698;47.690;9.132;2023-02-28T09:57:53;6.63;;;4.40;;
23060;SDS011;11698;47.690;9.132;2023-02-28T10:00:25;6.13;;;4.47;;
23060;SDS011;11698;47.690;9.132;2023-02-28T10:05:38;6.40;;;4.90;;
23060;SDS011;11698;47.690;9.132;2023-02-28T10:08:25;5.45;;;4.63;;
23060;SDS011;11698;47.690;9.132;2023-02-28T10:10:56;6.30;;;4.82;;
23060;SDS011;11698;47.690;9.132;2023-02-28T10:15:54;5.95;;;5.00;;
23060;SDS011;11698;47.690;9.132;2023-02-28T10:18:23;7.95;;;5.13;;
23060;SDS011;11698;47.690;9.132;2023-02-28T10:20:49;6.60;;;4.72;;
23060;SDS011;11698;47.690;9.132;2023-02-28T10:23:25;6.77;;;4.90;;
23060;SDS011;11698;47.690;9.132;2023-02-28T10:25:54;7.28;;;4.85;;
23060;SDS011;11698;47.690;9.132;2023-02-28T10:28:20;6.72;;;4.80;;
23060;SDS011;11698;47.690;9.132;2023-02-28T10:30:51;7.85;;;5.00;;
23060;SDS011;11698;47.690;9.132;2023-02-28T10:35:48;8.02;;;5.03;;
23060;SDS011;11698;47.690;9.132;2023-02-28T10:38:15;8.87;;;5.40;;
23060;SDS011;11698;47.690;9.132;2023-02-28T10:40:41;6.80;;;5.30;;
23060;SDS011;11698;47.690;9.132;2023-02-28T10:45:40;8.45;;;5.13;;
23060;SDS011;11698;47.690;9.132;2023-02-28T10:55:56;5.70;;;5.10;;
23060;SDS011;11698;47.690;9.132;2023-02-28T10:58:24;7.38;;;5.15;;
23060;SDS011;11698;47.690;9.132;2023-02-28T11:00:51;7.70;;;5.57;;
23060;SDS011;11698;47.690;9.132;2023-02-28T11:03:39;7.25;;;5.25;;
23060;SDS011;11698;47.690;9.132;2023-02-28T11:06:12;7.28;;;5.20;;
23060;SDS011;11698;47.690;9.132;2023-02-28T11:08:46;9.48;;;5.72;;
23060;SDS011;11698;47.690;9.132;2023-02-28T11:11:12;9.73;;;6.63;;
23060;SDS011;11698;47.690;9.132;2023-02-28T11:13:39;7.75;;;5.55;;
23060;SDS011;11698;47.690;9.132;2023-02-28T11:16:10;7.38;;;5.43;;
23060;SDS011;11698;47.690;9.132;2023-02-28T11:21:16;8.70;;;6.13;;
23060;SDS011;11698;47.690;9.132;2023-02-28T11:23:43;7.20;;;5.60;;
23060;SDS011;11698;47.690;9.132;2023-02-28T11:26:10;6.65;;;5.32;;
23060;SDS011;11698;47.690;9.132;2023-02-28T11:28:40;7.72;;;5.40;;
23060;SDS011;11698;47.690;9.132;2023-02-28T11:36:17;8.20;;;5.93;;
23060;SDS011;11698;47.690;9.132;2023-02-28T11:38:44;7.60;;;5.68;;
23060;SDS011;11698;47.690;9.132;2023-02-28T11:41:14;7.72;;;5.78;;
23060;SDS011;11698;47.690;9.132;2023-02-28T11:49:31;8.25;;;6.07;;
23060;SDS011;11698;47.690;9.132;2023-02-28T11:51:47;8.40;;;6.10;;
23060;SDS011;11698;47.690;9.132;2023-02-28T11:56:54;9.98;;;6.15;;
23060;SDS011;11698;47.690;9.132;2023-02-28T12:20:14;9.07;;;6.67;;
23060;SDS011;11698;47.690;9.132;2023-02-28T12:22:54;10.37;;;6.87;;
23060;SDS011;11698;47.690;9.132;2023-02-28T12:27:58;10.05;;;6.72;;
23060;SDS011;11698;47.690;9.132;2023-02-28T12:30:28;8.27;;;6.13;;
23060;SDS011;11698;47.690;9.132;2023-02-28T12:33:12;9.50;;;6.53;;
23060;SDS011;11698;47.690;9.132;2023-02-28T12:35:41;10.43;;;6.40;;
23060;SDS011;11698;47.690;9.132;2023-02-28T12:38:14;9.50;;;5.70;;
23060;SDS011;11698;47.690;9.132;2023-02-28T12:40:45;9.63;;;6.70;;
23060;SDS011;11698;47.690;9.132;2023-02-28T12:43:13;9.65;;;6.30;;
23060;SDS011;11698;47.690;9.132;2023-02-28T12:45:48;8.15;;;6.57;;
23060;SDS011;11698;47.690;9.132;2023-02-28T12:48:18;9.50;;;6.80;;
23060;SDS011;11698;47.690;9.132;2023-02-28T12:50:45;8.80;;;6.37;;
23060;SDS011;11698;47.690;9.132;2023-02-28T12:55:57;8.80;;;6.15;;
23060;SDS011;11698;47.690;9.132;2023-02-28T12:58:42;10.13;;;6.32;;
23060;SDS011;11698;47.690;9.132;2023-02-28T13:09:16;9.75;;;6.93;;
23060;SDS011;11698;47.690;9.132;2023-02-28T13:11:44;9.82;;;6.97;;
23060;SDS011;11698;47.690;9.132;2023-02-28T13:14:29;9.30;;;6.38;;
23060;SDS011;11698;47.690;9.132;2023-02-28T13:19:34;8.57;;;6.90;;
23060;SDS011;11698;47.690;9.132;2023-02-28T13:22:01;11.10;;;7.00;;
23060;SDS011;11698;47.690;9.132;2023-02-28T13:29:36;9.10;;;6.73;;
23060;SDS011;11698;47.690;9.132;2023-02-28T13:34:36;9.77;;;6.88;;
23060;SDS011;11698;47.690;9.132;2023-02-28T13:39:51;9.65;;;6.70;;
23060;SDS011;11698;47.690;9.132;2023-02-28T13:47:35;9.90;;;7.07;;
23060;SDS011;11698;47.690;9.132;2023-02-28T13:50:21;9.30;;;7.38;;
23060;SDS011;11698;47.690;9.132;2023-02-28T13:52:50;12.13;;;7.47;;
23060;SDS011;11698;47.690;9.132;2023-02-28T14:05:41;13.30;;;8.05;;
23060;SDS011;11698;47.690;9.132;2023-02-28T14:08:11;10.50;;;7.68;;
23060;SDS011;11698;47.690;9.132;2023-02-28T14:10:44;12.45;;;8.07;;
23060;SDS011;11698;47.690;9.132;2023-02-28T14:13:36;11.35;;;7.78;;
23060;SDS011;11698;47.690;9.132;2023-02-28T14:16:02;11.25;;;6.78;;
23060;SDS011;11698;47.690;9.132;2023-02-28T14:18:35;10.52;;;7.38;;
23060;SDS011;11698;47.690;9.132;2023-02-28T14:24:22;12.32;;;8.50;;
23060;SDS011;11698;47.690;9.132;2023-02-28T14:26:56;10.82;;;7.53;;
23060;SDS011;11698;47.690;9.132;2023-02-28T14:36:48;12.07;;;8.07;;
23060;SDS011;11698;47.690;9.132;2023-02-28T14:39:15;11.75;;;8.15;;
23060;SDS011;11698;47.690;9.132;2023-02-28T14:41:56;13.47;;;8.07;;
23060;SDS011;11698;47.690;9.132;2023-02-28T14:44:29;11.88;;;7.35;;
23060;SDS011;11698;47.690;9.132;2023-02-28T14:46:56;11.27;;;7.50;;
23060;SDS011;11698;47.690;9.132;2023-02-28T14:49:29;13.02;;;7.70;;
23060;SDS011;11698;47.690;9.132;2023-02-28T14:54:40;11.65;;;7.78;;
23060;SDS011;11698;47.690;9.132;2023-02-28T14:57:19;11.33;;;8.03;;
23060;SDS011;11698;47.690;9.132;2023-02-28T14:59:45;11.77;;;7.82;;
23060;SDS011;11698;47.690;9.132;2023-02-28T15:02:22;10.95;;;7.43;;
23060;SDS011;11698;47.690;9.132;2023-02-28T15:04:52;12.35;;;7.82;;
23060;SDS011;11698;47.690;9.132;2023-02-28T15:07:19;13.75;;;8.05;;
23060;SDS011;11698;47.690;9.132;2023-02-28T15:12:37;11.43;;;8.05;;
23060;SDS011;11698;47.690;9.132;2023-02-28T15:15:05;9.90;;;8.00;;
23060;SDS011;11698;47.690;9.132;2023-02-28T15:17:32;11.50;;;7.93;;
23060;SDS011;11698;47.690;9.132;2023-02-28T15:19:59;10.52;;;7.28;;
23060;SDS011;11698;47.690;9.132;2023-02-28T15:22:31;11.98;;;7.75;;
23060;SDS011;11698;47.690;9.132;2023-02-28T15:24:59;10.15;;;7.88;;
23060;SDS011;11698;47.690;9.132;2023-02-28T15:27:28;11.57;;;7.38;;
23060;SDS011;11698;47.690;9.132;2023-02-28T15:29:57;9.48;;;7.65;;
23060;SDS011;11698;47.690;9.132;2023-02-28T15:34:53;9.57;;;7.85;;
23060;SDS011;11698;47.690;9.132;2023-02-28T15:37:26;10.85;;;7.63;;
23060;SDS011;11698;47.690;9.132;2023-02-28T15:39:55;12.13;;;7.68;;
23060;SDS011;11698;47.690;9.132;2023-02-28T15:42:21;9.15;;;7.28;;
23060;SDS011;11698;47.690;9.132;2023-02-28T15:44:48;9.23;;;7.40;;
23060;SDS011;11698;47.690;9.132;2023-02-28T15:47:19;9.25;;;7.60;;
23060;SDS011;11698;47.690;9.132;2023-02-28T15:52:13;10.38;;;7.60;;
23060;SDS011;11698;47.690;9.132;2023-02-28T15:54:39;8.60;;;7.40;;
23060;SDS011;11698;47.690;9.132;2023-02-28T15:57:07;10.25;;;7.90;;
23060;SDS011;11698;47.690;9.132;2023-02-28T15:59:38;10.57;;;7.55;;
23060;SDS011;11698;47.690;9.132;2023-02-28T16:07:35;10.68;;;7.85;;
23060;SDS011;11698;47.690;9.132;2023-02-28T16:10:03;10.55;;;7.22;;
23060;SDS011;11698;47.690;9.132;2023-02-28T16:12:30;10.30;;;8.10;;
23060;SDS011;11698;47.690;9.132;2023-02-28T16:14:57;9.90;;;7.40;;
23060;SDS011;11698;47.690;9.132;2023-02-28T16:17:25;11.32;;;7.70;;
23060;SDS011;11698;47.690;9.132;2023-02-28T16:19:52;10.90;;;8.25;;
23060;SDS011;11698;47.690;9.132;2023-02-28T16:22:18;10.55;;;7.95;;
23060;SDS011;11698;47.690;9.132;2023-02-28T16:24:44;10.00;;;7.93;;
23060;SDS011;11698;47.690;9.132;2023-02-28T16:27:18;10.02;;;7.55;;
23060;SDS011;11698;47.690;9.132;2023-02-28T16:29:45;11.88;;;7.95;;
23060;SDS011;11698;47.690;9.132;2023-02-28T16:32:13;12.63;;;8.33;;
23060;SDS011;11698;47.690;9.132;2023-02-28T16:34:40;12.63;;;8.48;;
23060;SDS011;11698;47.690;9.132;2023-02-28T16:37:13;13.93;;;9.03;;
23060;SDS011;11698;47.690;9.132;2023-02-28T16:39:40;13.15;;;8.30;;
23060;SDS011;11698;47.690;9.132;2023-02-28T16:42:07;12.07;;;8.37;;
23060;SDS011;11698;47.690;9.132;2023-02-28T16:44:35;10.70;;;8.05;;
23060;SDS011;11698;47.690;9.132;2023-02-28T16:47:01;11.77;;;8.05;;
23060;SDS011;11698;47.690;9.132;2023-02-28T16:49:28;11.50;;;8.13;;
23060;SDS011;11698;47.690;9.132;2023-02-28T16:51:54;13.48;;;8.40;;
23060;SDS011;11698;47.690;9.132;2023-02-28T16:54:20;12.43;;;8.50;;
23060;SDS011;11698;47.690;9.132;2023-02-28T16:56:46;12.25;;;8.48;;
23060;SDS011;11698;47.690;9.132;2023-02-28T16:59:13;12.43;;;7.90;;
23060;SDS011;11698;47.690;9.132;2023-02-28T17:01:40;11.93;;;8.10;;
23060;SDS011;11698;47.690;9.132;2023-02-28T17:04:08;11.48;;;7.57;;
23060;SDS011;11698;47.690;9.132;2023-02-28T17:06:34;12.70;;;8.80;;
23060;SDS011;11698;47.690;9.132;2023-02-28T17:09:00;12.33;;;8.37;;
23060;SDS011;11698;47.690;9.132;2023-02-28T17:11:26;14.23;;;8.27;;
23060;SDS011;11698;47.690;9.132;2023-02-28T17:13:52;11.27;;;7.97;;
23060;SDS011;11698;47.690;9.132;2023-02-28T17:16:27;14.10;;;8.63;;
23060;SDS011;11698;47.690;9.132;2023-02-28T17:18:54;14.13;;;8.90;;
23060;SDS011;11698;47.690;9.132;2023-02-28T17:21:22;17.45;;;9.45;;
23060;SDS011;11698;47.690;9.132;2023-02-28T17:23:48;14.05;;;8.63;;
23060;SDS011;11698;47.690;9.132;2023-02-28T17:26:15;13.88;;;9.13;;
23060;SDS011;11698;47.690;9.132;2023-02-28T17:28:42;16.52;;;9.07;;
23060;SDS011;11698;47.690;9.132;2023-02-28T17:31:09;13.10;;;8.40;;
23060;SDS011;11698;47.690;9.132;2023-02-28T17:33:35;13.00;;;8.10;;
23060;SDS011;11698;47.690;9.132;2023-02-28T17:36:01;13.60;;;8.65;;